createdAt,value
2022-08-18T00:01:49.215Z,90.31
2022-08-18T00:04:36.276Z,90.34
2022-08-18T00:07:13.043Z,90.79
2022-08-18T00:09:41.240Z,91.08
2022-08-18T00:12:15.069Z,90.70
2022-08-18T00:14:42.540Z,89.70
2022-08-18T00:17:09.627Z,89.38
2022-08-18T00:19:45.712Z,88.81
2022-08-18T00:22:18.527Z,88.06
2022-08-18T00:24:49.269Z,87.07
2022-08-18T00:27:22.860Z,87.16
2022-08-18T00:29:52.676Z,87.90
2022-08-18T00:32:23.937Z,90.09
2022-08-18T00:34:51.715Z,91.10
2022-08-18T00:37:18.815Z,91.43
2022-08-18T00:39:46.152Z,90.16
2022-08-18T00:42:29.801Z,88.06
2022-08-18T00:45:02.156Z,87.83
2022-08-18T00:47:33.135Z,89.20
2022-08-18T00:50:15.400Z,90.96
2022-08-18T00:52:47.787Z,91.97
2022-08-18T00:55:18.339Z,90.97
2022-08-18T00:57:48.473Z,89.95
2022-08-18T01:00:15.829Z,89.27
2022-08-18T01:02:51.656Z,87.72
2022-08-18T01:05:27.463Z,86.79
2022-08-18T01:07:54.718Z,84.97
2022-08-18T01:10:23.481Z,84.01
2022-08-18T01:12:57.019Z,83.64
2022-08-18T01:15:28.914Z,83.67
2022-08-18T01:18:21.830Z,82.70
2022-08-18T01:21:10.036Z,83.49
2022-08-18T01:23:37.599Z,84.46
2022-08-18T01:26:04.714Z,83.75
2022-08-18T01:28:34.799Z,83.13
2022-08-18T01:31:03.747Z,82.40
2022-08-18T01:33:34.062Z,81.75
2022-08-18T01:36:16.826Z,81.64
2022-08-18T01:38:46.600Z,81.22
2022-08-18T01:41:26.293Z,80.18
2022-08-18T01:43:56.390Z,79.59
2022-08-18T01:46:23.710Z,78.79
2022-08-18T01:48:51.725Z,78.87
2022-08-18T01:51:20.600Z,79.18
2022-08-18T01:54:06.111Z,80.75
2022-08-18T01:56:33.234Z,81.63
2022-08-18T01:59:00.158Z,81.27
2022-08-18T02:01:36.526Z,82.00
2022-08-18T02:04:33.283Z,82.25
2022-08-18T02:06:56.327Z,82.54
2022-08-18T02:09:24.561Z,83.45
2022-08-18T02:11:55.742Z,83.78
2022-08-18T02:14:25.283Z,83.86
2022-08-18T02:17:01.910Z,85.05
2022-08-18T02:19:38.716Z,84.89
2022-08-18T02:22:07.877Z,85.43
2022-08-18T02:24:34.863Z,85.83
2022-08-18T02:27:01.846Z,85.61
2022-08-18T02:29:29.209Z,85.31
2022-08-18T02:31:56.316Z,86.17
2022-08-18T02:34:23.831Z,86.29
2022-08-18T02:36:51.387Z,86.69
2022-08-18T02:39:18.312Z,85.42
2022-08-18T02:41:45.327Z,86.05
2022-08-18T02:44:12.413Z,86.11
2022-08-18T02:46:39.443Z,85.69
2022-08-18T02:49:08.229Z,85.81
2022-08-18T02:51:36.076Z,86.50
2022-08-18T02:54:03.788Z,86.53
2022-08-18T02:56:41.679Z,87.31
2022-08-18T02:59:15.556Z,86.73
2022-08-18T03:01:46.547Z,86.77
2022-08-18T03:04:16.459Z,86.44
2022-08-18T03:06:45.349Z,85.40
2022-08-18T03:09:15.492Z,85.30
2022-08-18T03:11:43.466Z,85.13
2022-08-18T03:14:11.842Z,84.86
2022-08-18T03:16:53.216Z,84.34
2022-08-18T03:19:26.139Z,83.80
2022-08-18T03:21:55.122Z,83.86
2022-08-18T03:24:26.699Z,84.21
2022-08-18T03:26:56.913Z,84.14
2022-08-18T03:29:27.972Z,83.81
2022-08-18T03:31:59.228Z,83.29
2022-08-18T03:34:26.241Z,83.30
2022-08-18T03:36:53.857Z,83.29
2022-08-18T03:39:23.711Z,83.73
2022-08-18T03:41:59.902Z,82.83
2022-08-18T03:44:33.763Z,83.20
2022-08-18T03:47:03.964Z,83.53
2022-08-18T03:49:33.911Z,83.08
2022-08-18T03:52:01.568Z,84.25
2022-08-18T03:54:32.288Z,84.63
2022-08-18T03:57:00.507Z,85.26
2022-08-18T03:59:30.765Z,85.85
2022-08-18T04:01:58.255Z,85.80
2022-08-18T04:04:28.019Z,86.06
2022-08-18T04:06:58.878Z,86.08
2022-08-18T04:09:28.653Z,85.55
2022-08-18T04:11:57.032Z,85.81
2022-08-18T04:14:26.231Z,86.09
2022-08-18T04:16:53.502Z,86.12
2022-08-18T04:19:23.113Z,86.25
2022-08-18T04:21:57.064Z,86.35
2022-08-18T04:24:24.301Z,86.29
2022-08-18T04:26:52.146Z,86.39
2022-08-18T04:29:21.472Z,87.21
2022-08-18T04:31:50.538Z,87.31
2022-08-18T04:34:20.575Z,87.49
2022-08-18T04:36:48.771Z,87.51
2022-08-18T04:39:15.846Z,87.62
2022-08-18T04:41:44.192Z,87.82
2022-08-18T04:44:12.686Z,89.58
2022-08-18T04:46:54.067Z,90.35
2022-08-18T04:49:26.195Z,90.13
2022-08-18T04:52:34.331Z,90.40
2022-08-18T04:55:03.049Z,90.35
2022-08-18T04:57:34.143Z,89.74
2022-08-18T05:00:04.239Z,90.76
2022-08-18T05:02:33.194Z,89.06
2022-08-18T05:05:03.553Z,88.43
2022-08-18T05:07:30.862Z,88.90
2022-08-18T05:09:57.816Z,87.88
2022-08-18T05:12:26.425Z,86.48
2022-08-18T05:14:57.140Z,86.04
2022-08-18T05:17:30.211Z,86.00
2022-08-18T05:19:59.041Z,86.21
2022-08-18T05:22:28.445Z,87.58
2022-08-18T05:24:58.338Z,88.02
2022-08-18T05:27:25.381Z,87.32
2022-08-18T05:29:52.391Z,86.48
2022-08-18T05:32:40.944Z,86.30
2022-08-18T05:35:08.389Z,85.57
2022-08-18T05:37:54.454Z,84.84
2022-08-18T05:40:25.230Z,83.26
2022-08-18T05:42:52.341Z,82.13
2022-08-18T05:45:20.503Z,81.66
2022-08-18T05:47:47.602Z,79.97
2022-08-18T05:50:18.784Z,80.12
2022-08-18T05:52:57.716Z,78.95
2022-08-18T05:55:52.677Z,78.51
2022-08-18T05:58:42.231Z,78.54
2022-08-18T06:01:18.849Z,77.59
2022-08-18T06:03:54.070Z,77.56
2022-08-18T06:06:25.499Z,76.93
2022-08-18T06:09:17.991Z,76.27
2022-08-18T06:11:45.775Z,75.59
2022-08-18T06:14:13.631Z,75.08
2022-08-18T06:17:25.381Z,74.13
2022-08-18T06:19:52.284Z,73.45
2022-08-18T06:22:53.395Z,72.91
2022-08-18T06:25:34.371Z,71.81
2022-08-18T06:28:16.276Z,70.93
2022-08-18T06:30:59.966Z,69.04
2022-08-18T06:33:45.982Z,66.96
2022-08-18T06:36:14.513Z,67.04
2022-08-18T06:39:42.023Z,66.93
2022-08-18T06:42:31.356Z,66.41
2022-08-18T06:45:01.145Z,64.93
2022-08-18T06:47:33.877Z,65.12
2022-08-18T06:50:08.529Z,64.78
2022-08-18T06:52:39.058Z,62.64
2022-08-18T06:55:11.560Z,63.31
2022-08-18T06:57:52.505Z,63.43
2022-08-18T07:00:19.676Z,62.62
2022-08-18T07:02:58.385Z,61.74
2022-08-18T07:05:31.168Z,60.21
2022-08-18T07:08:10.852Z,60.12
2022-08-18T07:10:41.777Z,58.97
2022-08-18T07:13:14.304Z,60.23
2022-08-18T07:15:41.630Z,58.94
2022-08-18T07:18:14.588Z,57.39
2022-08-18T07:20:48.711Z,57.34
2022-08-18T07:23:27.742Z,55.27
2022-08-18T07:26:15.156Z,55.35
2022-08-18T07:28:49.846Z,53.96
2022-08-18T07:31:40.698Z,54.89
2022-08-18T07:34:17.602Z,53.07
2022-08-18T07:36:50.538Z,53.93
2022-08-18T07:39:25.788Z,53.62
2022-08-18T07:42:07.636Z,54.32
2022-08-18T07:44:55.106Z,53.48
2022-08-18T07:47:54.425Z,51.37
2022-08-18T07:50:57.391Z,50.14
2022-08-18T07:53:54.622Z,50.67
2022-08-18T07:56:44.329Z,50.29
2022-08-18T07:59:16.076Z,50.78
2022-08-18T08:02:00.310Z,49.96
2022-08-18T08:04:32.840Z,49.03
2022-08-18T08:07:35.887Z,49.16
2022-08-18T08:10:12.106Z,49.39
2022-08-18T08:13:10.019Z,49.04
2022-08-18T08:16:13.057Z,48.12
2022-08-18T08:18:45.118Z,47.03
2022-08-18T08:21:18.000Z,47.11
2022-08-18T08:23:53.686Z,46.37
2022-08-18T08:26:27.565Z,47.08
2022-08-18T08:29:06.500Z,46.08
2022-08-18T08:31:52.062Z,45.94
2022-08-18T08:34:31.468Z,45.24
2022-08-18T08:37:02.761Z,45.45
2022-08-18T08:39:47.191Z,45.61
2022-08-18T08:42:33.799Z,46.50
2022-08-18T08:45:23.805Z,45.54
2022-08-18T08:48:09.510Z,45.29
2022-08-18T08:50:45.545Z,46.15
2022-08-18T08:53:30.436Z,45.66
2022-08-18T08:56:03.363Z,44.88
2022-08-18T08:58:48.414Z,44.58
2022-08-18T09:01:42.901Z,45.28
2022-08-18T09:04:31.413Z,44.52
2022-08-18T09:07:41.437Z,44.76
2022-08-18T09:10:26.764Z,44.75
2022-08-18T09:13:15.280Z,41.46
2022-08-18T09:16:12.249Z,41.30
2022-08-18T09:19:05.463Z,40.93
2022-08-18T09:21:45.988Z,40.27
2022-08-18T09:24:51.099Z,41.24
2022-08-18T09:27:31.046Z,40.33
2022-08-18T09:30:02.072Z,41.30
2022-08-18T09:32:29.182Z,42.08
2022-08-18T09:35:05.329Z,42.36
2022-08-18T09:38:12.929Z,41.10
2022-08-18T09:41:24.341Z,41.24
2022-08-18T10:17:39.241Z,41.36
2022-08-18T10:20:23.961Z,40.27
2022-08-18T10:22:56.588Z,40.70
2022-08-18T10:25:46.601Z,40.60
2022-08-18T10:28:55.575Z,40.22
2022-08-18T10:31:27.316Z,40.26
2022-08-18T10:33:54.479Z,39.10
2022-08-18T10:36:40.111Z,39.58
2022-08-18T10:39:16.000Z,38.60
2022-08-18T10:44:47.180Z,39.97
2022-08-18T10:47:33.315Z,39.46
2022-08-18T10:50:07.170Z,39.09
2022-08-18T10:53:40.148Z,39.68
2022-08-18T10:56:26.908Z,39.44
2022-08-18T10:59:16.472Z,38.04
2022-08-18T11:01:50.256Z,38.09
2022-08-18T11:07:43.041Z,38.13
2022-08-18T11:10:32.162Z,37.37
2022-08-18T11:13:32.430Z,37.62
2022-08-18T11:16:18.378Z,37.78
2022-08-18T11:18:55.166Z,37.70
2022-08-18T11:21:33.037Z,36.60
2022-08-18T11:24:24.982Z,35.72
2022-08-18T11:27:02.090Z,36.64
2022-08-18T11:29:39.082Z,36.59
2022-08-18T11:32:24.291Z,36.97
2022-08-18T11:35:16.392Z,37.15
2022-08-18T11:37:53.243Z,36.80
2022-08-18T11:46:29.747Z,38.53
2022-08-18T11:49:01.777Z,36.73
2022-08-18T11:51:33.626Z,36.62
2022-08-18T11:54:15.664Z,36.57
2022-08-18T11:56:42.658Z,37.85
2022-08-18T11:59:25.703Z,38.39
2022-08-18T12:02:21.504Z,37.46
2022-08-18T12:05:08.741Z,38.11
2022-08-18T12:07:57.908Z,37.82
2022-08-18T12:10:28.694Z,38.35
2022-08-18T12:13:00.489Z,38.81
2022-08-18T12:15:29.684Z,39.74
2022-08-18T12:20:59.394Z,38.92
2022-08-18T12:23:39.163Z,39.03
2022-08-18T12:29:03.334Z,40.15
2022-08-18T12:31:42.755Z,39.92
2022-08-18T12:34:25.137Z,40.36
2022-08-18T12:36:57.255Z,40.55
2022-08-18T12:39:25.117Z,40.08
2022-08-18T12:44:39.227Z,39.89
2022-08-18T12:47:12.420Z,40.01
2022-08-18T12:49:40.022Z,38.66
2022-08-18T12:52:08.095Z,38.63
2022-08-18T12:54:55.686Z,38.41
2022-08-18T12:57:33.357Z,37.75
2022-08-18T13:00:16.960Z,38.32
2022-08-18T13:02:45.696Z,37.10
2022-08-18T13:05:12.643Z,36.80
2022-08-18T13:07:39.544Z,37.27
2022-08-18T13:10:07.353Z,36.88
2022-08-18T13:12:48.858Z,37.72
2022-08-18T13:15:16.850Z,37.46
2022-08-18T13:17:46.798Z,37.52
2022-08-18T13:20:17.532Z,36.35
2022-08-18T13:22:44.529Z,37.55
2022-08-18T13:25:32.281Z,37.66
2022-08-18T13:28:02.452Z,37.97
2022-08-18T13:30:32.295Z,38.74
2022-08-18T13:33:02.406Z,38.88
2022-08-18T13:35:38.064Z,38.15
2022-08-18T13:38:15.699Z,38.87
2022-08-18T13:40:50.656Z,38.91
2022-08-18T13:43:23.375Z,38.22
2022-08-18T13:45:53.364Z,38.22
2022-08-18T13:48:24.150Z,38.75
2022-08-18T13:50:55.725Z,38.52
2022-08-18T13:53:24.658Z,38.79
2022-08-18T13:55:53.184Z,38.47
2022-08-18T13:58:21.268Z,37.69
2022-08-18T14:01:05.726Z,37.42
2022-08-18T14:03:47.201Z,38.33
2022-08-18T14:06:15.940Z,39.22
2022-08-18T14:08:50.885Z,39.49
2022-08-18T14:11:18.854Z,39.51
2022-08-18T14:13:45.875Z,39.63
2022-08-18T14:16:18.449Z,39.23
2022-08-18T14:19:09.531Z,40.06
2022-08-18T14:22:01.649Z,39.57
2022-08-18T14:24:49.502Z,39.97
2022-08-18T14:27:24.735Z,40.11
2022-08-18T14:29:55.111Z,40.71
2022-08-18T14:32:29.068Z,40.41
2022-08-18T14:35:00.236Z,39.92
2022-08-18T14:37:29.829Z,40.18
2022-08-18T14:39:58.449Z,40.63
2022-08-18T14:42:32.985Z,41.29
2022-08-18T14:45:26.460Z,41.82
2022-08-18T14:47:58.778Z,41.91
2022-08-18T14:50:26.925Z,42.15
2022-08-18T14:52:54.010Z,41.94
2022-08-18T14:55:21.263Z,41.81
2022-08-18T14:57:50.491Z,50.28
2022-08-18T15:00:21.055Z,51.26
2022-08-18T15:02:50.405Z,52.31
2022-08-18T15:05:19.833Z,52.65
2022-08-18T15:07:52.139Z,53.64
2022-08-18T15:10:23.649Z,53.72
2022-08-18T15:12:55.530Z,55.06
2022-08-18T15:15:22.915Z,55.04
2022-08-18T15:17:52.951Z,55.59
2022-08-18T15:20:28.822Z,55.86
2022-08-18T15:23:25.051Z,56.61
2022-08-18T15:25:56.580Z,57.20
2022-08-18T15:28:26.446Z,56.48
2022-08-18T15:33:40.343Z,56.66
2022-08-18T15:36:10.302Z,57.83
2022-08-18T15:38:43.108Z,58.38
2022-08-18T15:41:10.259Z,58.67
2022-08-18T15:43:45.981Z,58.99
2022-08-18T15:46:16.632Z,58.43
2022-08-18T15:48:43.981Z,58.00
2022-08-18T15:51:12.042Z,58.70
2022-08-18T15:53:40.353Z,59.17
2022-08-18T15:56:20.679Z,58.30
2022-08-18T15:58:48.557Z,58.88
2022-08-18T16:01:29.878Z,60.54
2022-08-18T16:04:01.366Z,61.63
2022-08-18T16:06:32.387Z,61.66
2022-08-18T16:09:00.991Z,62.21
2022-08-18T16:11:29.309Z,63.46
2022-08-18T16:14:00.920Z,64.34
2022-08-18T16:16:29.047Z,66.09
2022-08-18T16:19:05.669Z,66.32
2022-08-18T16:21:32.892Z,65.82
2022-08-18T16:23:59.855Z,65.50
2022-08-18T16:26:26.828Z,65.12
2022-08-18T16:28:53.808Z,65.37
2022-08-18T16:31:26.224Z,66.61
2022-08-18T16:33:55.531Z,67.76
2022-08-18T16:36:26.640Z,68.58
2022-08-18T16:38:58.163Z,68.14
2022-08-18T16:41:26.618Z,67.88
2022-08-18T16:43:53.935Z,68.85
2022-08-18T16:46:25.378Z,68.84
2022-08-18T16:48:55.162Z,68.40
2022-08-18T16:51:25.416Z,67.81
2022-08-18T16:53:53.607Z,68.79
2022-08-18T16:56:23.744Z,68.25
2022-08-18T16:59:10.003Z,67.79
2022-08-18T17:01:56.302Z,67.78
2022-08-18T17:04:28.888Z,67.83
2022-08-18T17:06:57.021Z,67.67
2022-08-18T17:09:24.567Z,67.80
2022-08-18T17:11:52.440Z,67.49
2022-08-18T17:14:25.611Z,67.09
2022-08-18T17:16:55.233Z,66.76
2022-08-18T17:19:30.018Z,66.91
2022-08-18T17:21:57.602Z,66.78
2022-08-18T17:24:32.176Z,66.72
2022-08-18T17:27:26.142Z,66.73
2022-08-18T17:30:16.158Z,66.63
2022-08-18T17:32:49.466Z,66.64
2022-08-18T17:35:34.874Z,67.03
2022-08-18T17:38:08.881Z,66.74
2022-08-18T17:40:42.914Z,67.43
2022-08-18T17:43:14.923Z,67.12
2022-08-18T17:45:43.627Z,67.22
2022-08-18T17:48:22.341Z,67.17
2022-08-18T17:51:21.139Z,66.94
2022-08-18T17:53:48.230Z,66.95
2022-08-18T17:56:35.167Z,66.79
2022-08-18T17:59:51.164Z,67.85
2022-08-18T18:02:19.041Z,67.80
2022-08-18T18:04:58.700Z,68.31
2022-08-18T18:07:34.107Z,67.80
2022-08-18T18:10:02.677Z,68.19
2022-08-18T18:12:32.424Z,69.42
2022-08-18T18:15:00.802Z,69.27
2022-08-18T18:17:31.198Z,69.42
2022-08-18T18:20:24.502Z,69.75
2022-08-18T18:22:52.307Z,70.89
2022-08-18T18:25:34.689Z,70.96
2022-08-18T18:28:02.441Z,70.35
2022-08-18T18:30:30.021Z,70.17
2022-08-18T18:33:19.658Z,70.12
2022-08-18T18:35:53.993Z,70.76
2022-08-18T18:38:35.574Z,70.26
2022-08-18T18:41:06.865Z,70.21
2022-08-18T18:43:35.462Z,71.04
2022-08-18T18:46:23.514Z,70.80
2022-08-18T18:49:11.834Z,70.38
2022-08-18T18:52:10.454Z,71.33
2022-08-18T18:54:57.247Z,72.18
2022-08-18T18:57:23.983Z,73.11
2022-08-18T19:00:13.462Z,75.28
2022-08-18T19:02:57.811Z,75.82
2022-08-18T19:05:56.852Z,77.33
2022-08-18T19:08:36.126Z,76.87
2022-08-18T19:11:12.105Z,77.64
2022-08-18T19:13:44.247Z,77.36
2022-08-18T19:16:24.371Z,78.17
2022-08-18T19:19:36.967Z,79.08
2022-08-18T19:22:04.270Z,80.97
2022-08-18T19:24:47.781Z,82.19
2022-08-18T19:27:25.520Z,82.79
2022-08-18T19:29:56.516Z,83.95
2022-08-18T19:32:32.570Z,84.19
2022-08-18T19:35:04.252Z,84.07
2022-08-18T19:37:59.017Z,84.40
2022-08-18T19:40:48.344Z,84.74
2022-08-18T19:43:58.849Z,85.98
2022-08-18T19:46:39.641Z,86.92
2022-08-18T19:49:28.826Z,87.23
2022-08-18T19:52:52.595Z,87.59
2022-08-18T19:55:33.022Z,87.88
2022-08-18T19:58:16.731Z,87.94
2022-08-18T20:01:10.267Z,88.25
2022-08-18T20:03:59.137Z,88.94
2022-08-18T20:06:56.845Z,89.29
2022-08-18T20:09:33.389Z,90.23
2022-08-18T20:12:17.510Z,90.37
2022-08-18T20:15:00.670Z,90.98
2022-08-18T20:17:28.387Z,91.21
2022-08-18T20:19:55.326Z,91.12
2022-08-18T20:22:24.477Z,90.71
2022-08-18T20:25:04.653Z,90.40
2022-08-18T20:27:41.923Z,90.42
2022-08-18T20:30:29.834Z,92.92
2022-08-18T20:33:05.719Z,95.05
2022-08-18T20:35:46.816Z,96.41
2022-08-18T20:38:31.345Z,96.58
2022-08-18T20:41:00.067Z,96.15
2022-08-18T20:43:38.232Z,95.52
2022-08-18T20:46:22.485Z,96.07
2022-08-18T20:49:07.908Z,96.78
2022-08-18T20:51:52.164Z,97.15
2022-08-18T20:54:28.383Z,97.36
2022-08-18T20:57:00.358Z,98.44
2022-08-18T20:59:40.182Z,97.54
2022-08-18T21:02:24.384Z,96.23
2022-08-18T21:04:54.186Z,95.28
2022-08-18T21:07:37.314Z,94.54
2022-08-18T21:10:24.450Z,93.76
2022-08-18T21:12:55.072Z,93.63
2022-08-18T21:15:27.474Z,93.44
2022-08-18T21:18:03.004Z,93.00
2022-08-18T21:20:31.637Z,92.84
2022-08-18T21:23:11.039Z,92.94
2022-08-18T21:25:48.755Z,93.82
2022-08-18T21:28:17.598Z,94.37
2022-08-18T21:31:29.089Z,95.55
2022-08-18T21:33:53.756Z,95.04
2022-08-18T21:36:26.466Z,95.40
2022-08-18T21:38:56.788Z,95.32
2022-08-18T21:41:33.678Z,95.09
2022-08-18T21:44:07.093Z,94.57
2022-08-18T21:46:34.724Z,93.90
2022-08-18T21:49:03.855Z,94.95
2022-08-18T21:51:46.183Z,95.43
2022-08-18T21:54:18.218Z,96.26
2022-08-18T21:56:45.397Z,96.31
2022-08-18T21:59:17.087Z,95.51
2022-08-18T22:01:56.482Z,94.06
2022-08-18T22:04:47.548Z,93.36
2022-08-18T22:07:22.010Z,93.60
2022-08-18T22:10:36.958Z,94.37
2022-08-18T22:13:22.642Z,95.04
2022-08-18T22:15:50.862Z,97.10
2022-08-18T22:18:17.950Z,97.15
2022-08-18T22:20:53.049Z,96.59
2022-08-18T22:23:44.980Z,95.68
2022-08-18T22:26:15.123Z,95.45
2022-08-18T22:29:04.899Z,95.10
2022-08-18T22:31:34.060Z,95.23
2022-08-18T22:34:06.429Z,94.84
2022-08-18T22:36:47.144Z,93.79
2022-08-18T22:39:22.766Z,93.86
2022-08-18T22:41:49.804Z,94.17
2022-08-18T22:44:16.930Z,96.08
2022-08-18T22:46:43.926Z,97.59
2022-08-18T22:49:11.444Z,98.20
2022-08-18T22:51:38.602Z,96.92
2022-08-18T22:54:08.520Z,94.42
2022-08-18T22:56:37.957Z,92.85
2022-08-18T22:59:16.108Z,91.74
2022-08-18T23:01:49.118Z,91.06
2022-08-18T23:04:18.775Z,90.59
2022-08-18T23:06:52.545Z,90.43
2022-08-18T23:09:26.514Z,90.23
2022-08-18T23:11:56.584Z,90.02
2022-08-18T23:14:24.392Z,90.52
2022-08-18T23:16:51.635Z,90.53
2022-08-18T23:19:20.525Z,90.28
2022-08-18T23:21:48.801Z,90.21
2022-08-18T23:24:16.902Z,89.78
2022-08-18T23:26:43.963Z,89.36
2022-08-18T23:29:12.758Z,89.06
2022-08-18T23:31:41.789Z,89.06
2022-08-18T23:34:10.111Z,88.57
2022-08-18T23:36:41.270Z,88.03
2022-08-18T23:39:11.527Z,87.73
2022-08-18T23:41:38.985Z,87.94
2022-08-18T23:44:06.728Z,87.96
2022-08-18T23:46:35.315Z,88.69
2022-08-18T23:49:04.714Z,91.33
2022-08-18T23:51:42.733Z,94.46
2022-08-18T23:54:17.216Z,95.93
2022-08-18T23:56:44.834Z,96.55
2022-08-18T23:59:13.712Z,96.58
